Terminal Aerodrome Forecast
Issued by NWS Newport/Morehead City, NC

Home | Current Version | Previous Version | Text Only | Print | Product List | Glossary On
Versions: 1 2 3 4 5 6 7 8 9 10 11 12
000
FTUS42 KMHX 231743
TAFEWN
TAF
KEWN 231743Z 2318/2418 10014G22KT P6SM VCSH BKN045
     FM240400 11014G21KT 6SM -RA OVC025
     FM240900 11015G23KT 4SM RA OVC008
     FM241300 11015G26KT 2SM +SHRA OVC008=

USA.gov is the U.S. government's official web portal to all federal, state and local government web resources and services.